KCHK/CHK METAR and TAF weather

Enter ICAO airport designator
Station Type Date Time Source
KCHK METAR 2022/07/01 01:55 UTC NOAA

KCHK 010155Z AUTO 11006KT 10SM CLR 30/16 A2990 RMK AO2 T02990159


Station Type Date Time Source
KCHK Decoded METAR 2022/07/01 01:55 UTC NOAA

Chickasha, Chickasha Municipal Airport, OK, United States (KCHK) 35-05-46N 097-57-58W
Jun 30, 2022 - 09:55 PM EDT / 2022.07.01 0155 UTC
Wind: from the ESE (110 degrees) at 7 MPH (6 KT):0
Visibility: 10 mile(s):0
Sky conditions: clear
Temperature: 85.8 F (29.9 C)
Dew Point: 60.6 F (15.9 C)
Relative Humidity: 42%
Pressure (altimeter): 29.9 in. Hg (1012 hPa)
ob: KCHK 010155Z AUTO 11006KT 10SM CLR 30/16 A2990 RMK AO2 T02990159
cycle: 2

Station Type Date Time Source
KCHK TAF UTC NOAA

Error!

Example: see airport list